createdAt,value
2017-12-01T00:00:32.555Z,9.55
2017-12-01T00:03:00.908Z,12.20
2017-12-01T00:05:29.237Z,15.50
2017-12-01T00:07:57.556Z,12.88
2017-12-01T00:10:25.910Z,14.87
2017-12-01T00:12:54.219Z,12.13
2017-12-01T00:15:22.534Z,11.43
2017-12-01T00:17:50.846Z,11.68
2017-12-01T00:20:19.177Z,10.10
2017-12-01T00:22:47.512Z,6.57
2017-12-01T00:25:15.822Z,11.02
2017-12-01T00:27:44.136Z,10.35
2017-12-01T00:30:13.222Z,8.73
2017-12-01T00:32:42.302Z,12.00
2017-12-01T00:35:10.634Z,10.30
2017-12-01T00:37:38.958Z,11.10
2017-12-01T00:40:07.260Z,12.60
2017-12-01T00:42:35.580Z,9.52
2017-12-01T00:45:03.894Z,8.57
2017-12-01T00:47:32.978Z,9.68
2017-12-01T00:50:01.284Z,11.77
2017-12-01T00:52:29.594Z,10.02
2017-12-01T00:54:57.909Z,9.10
2017-12-01T00:57:26.283Z,12.85
2017-12-01T00:59:54.562Z,11.18
2017-12-01T01:02:22.900Z,10.77
2017-12-01T01:04:51.229Z,11.60
2017-12-01T01:07:20.328Z,12.95
2017-12-01T01:09:49.438Z,10.55
2017-12-01T01:12:17.774Z,8.57
2017-12-01T01:14:46.090Z,11.45
2017-12-01T01:17:15.168Z,14.13
2017-12-01T01:19:44.263Z,11.40
2017-12-01T01:22:13.384Z,9.02
2017-12-01T01:24:41.707Z,7.90
2017-12-01T01:27:10.039Z,7.05
2017-12-01T01:29:38.351Z,7.80
2017-12-01T01:32:06.678Z,10.23
2017-12-01T01:34:35.764Z,11.65
2017-12-01T01:37:04.857Z,11.95
2017-12-01T01:39:33.934Z,12.35
2017-12-01T01:42:02.266Z,11.93
2017-12-01T01:44:30.610Z,11.35
2017-12-01T01:46:59.694Z,12.55
2017-12-01T01:49:28.022Z,11.00
2017-12-01T01:51:56.366Z,7.05
2017-12-01T01:54:25.468Z,11.20
2017-12-01T01:56:53.788Z,13.07
2017-12-01T01:59:22.111Z,12.57
2017-12-01T02:01:51.198Z,15.02
2017-12-01T02:04:19.523Z,12.32
2017-12-01T02:06:47.892Z,10.95
2017-12-01T02:09:16.196Z,11.95
2017-12-01T02:11:44.507Z,11.27
2017-12-01T02:14:12.806Z,12.32
2017-12-01T02:16:41.112Z,13.40
2017-12-01T02:19:09.431Z,11.77
2017-12-01T02:21:37.742Z,13.13
2017-12-01T02:24:06.037Z,14.43
2017-12-01T02:26:34.341Z,14.20
2017-12-01T02:29:02.650Z,16.15
2017-12-01T02:31:31.721Z,14.85
2017-12-01T02:34:00.026Z,14.87
2017-12-01T02:36:29.075Z,15.70
2017-12-01T02:38:57.385Z,15.68
2017-12-01T02:41:26.448Z,15.25
2017-12-01T02:43:54.732Z,16.77
2017-12-01T02:46:23.053Z,16.30
2017-12-01T02:48:51.355Z,19.02
2017-12-01T02:51:19.652Z,17.23
2017-12-01T02:53:47.939Z,16.23
2017-12-01T02:56:16.244Z,17.62
2017-12-01T02:58:45.340Z,19.12
2017-12-01T03:01:14.404Z,20.00
2017-12-01T03:03:42.725Z,22.10
2017-12-01T03:06:11.042Z,22.85
2017-12-01T03:08:39.402Z,21.12
2017-12-01T03:11:07.732Z,23.35
2017-12-01T03:13:36.023Z,20.77
2017-12-01T03:16:05.086Z,22.80
2017-12-01T03:18:33.408Z,21.33
2017-12-01T03:21:01.709Z,24.95
2017-12-01T03:23:30.026Z,23.60
2017-12-01T03:25:58.349Z,23.38
2017-12-01T03:28:26.667Z,25.58
2017-12-01T03:30:54.999Z,23.50
2017-12-01T03:33:23.338Z,25.10
2017-12-01T03:35:51.667Z,26.30
2017-12-01T03:38:20.006Z,23.90
2017-12-01T03:40:49.120Z,25.20
2017-12-01T03:43:17.455Z,26.35
2017-12-01T03:45:45.774Z,26.67
2017-12-01T03:48:14.100Z,27.85
2017-12-01T03:50:42.431Z,27.95
2017-12-01T03:53:10.770Z,25.35
2017-12-01T03:55:39.102Z,28.12
2017-12-01T03:58:07.412Z,25.52
2017-12-01T04:00:35.725Z,24.85
2017-12-01T04:03:04.795Z,25.65
2017-12-01T04:05:33.099Z,25.25
2017-12-01T04:08:01.447Z,26.42
2017-12-01T04:10:29.738Z,25.70
2017-12-01T04:12:58.803Z,27.35
2017-12-01T04:15:27.095Z,29.67
2017-12-01T04:17:55.402Z,30.20
2017-12-01T04:20:23.696Z,32.22
2017-12-01T04:22:52.005Z,29.48
2017-12-01T04:25:20.301Z,26.73
2017-12-01T04:27:48.620Z,29.65
2017-12-01T04:30:16.911Z,30.98
2017-12-01T04:32:45.205Z,29.48
2017-12-01T04:35:13.524Z,32.67
2017-12-01T04:37:42.602Z,32.97
2017-12-01T04:40:10.931Z,34.33
2017-12-01T04:42:39.236Z,32.67
2017-12-01T04:45:07.534Z,34.65
2017-12-01T04:47:35.806Z,39.83
2017-12-01T04:50:04.124Z,36.97
2017-12-01T04:52:32.418Z,36.15
2017-12-01T04:55:00.719Z,41.70
2017-12-01T04:57:29.015Z,36.20
2017-12-01T04:59:57.325Z,40.88
2017-12-01T05:02:25.628Z,36.97
2017-12-01T05:04:53.924Z,40.42
2017-12-01T05:07:22.222Z,42.03
2017-12-01T05:09:50.519Z,38.50
2017-12-01T05:12:19.579Z,40.25
2017-12-01T05:14:47.859Z,43.38
2017-12-01T05:17:16.150Z,43.70
2017-12-01T05:19:45.209Z,44.90
2017-12-01T05:22:13.509Z,43.63
2017-12-01T05:24:41.808Z,46.45
2017-12-01T05:27:10.883Z,46.70
2017-12-01T05:29:39.172Z,41.70
2017-12-01T05:32:08.262Z,47.25
2017-12-01T05:34:36.555Z,40.70
2017-12-01T05:37:05.625Z,43.47
2017-12-01T05:39:33.932Z,45.45
2017-12-01T05:42:02.223Z,43.53
2017-12-01T05:44:30.524Z,44.58
2017-12-01T05:46:58.842Z,42.67
2017-12-01T05:49:27.136Z,47.62
2017-12-01T05:51:56.225Z,51.05
2017-12-01T05:54:25.272Z,46.00
2017-12-01T05:56:53.567Z,45.72
2017-12-01T05:59:21.858Z,48.55
2017-12-01T06:01:50.909Z,46.65
2017-12-01T06:04:19.206Z,45.60
2017-12-01T06:06:47.499Z,44.13
2017-12-01T06:09:15.798Z,37.97
2017-12-01T06:11:44.851Z,39.97
2017-12-01T06:14:13.161Z,39.28
2017-12-01T06:16:42.231Z,33.72
2017-12-01T06:19:10.571Z,36.83
2017-12-01T06:21:38.855Z,39.67
2017-12-01T06:24:07.154Z,39.92
2017-12-01T06:26:35.459Z,37.30
2017-12-01T06:29:04.515Z,37.05
2017-12-01T06:31:32.805Z,37.92
2017-12-01T06:34:01.098Z,40.95
2017-12-01T06:36:29.408Z,34.85
2017-12-01T06:38:57.704Z,36.53
2017-12-01T06:41:26.060Z,32.22
2017-12-01T06:43:54.401Z,31.60
2017-12-01T06:46:22.734Z,30.15
2017-12-01T06:48:51.044Z,30.88
2017-12-01T06:51:19.370Z,29.52
2017-12-01T06:53:47.694Z,29.40
2017-12-01T06:56:16.021Z,29.15
2017-12-01T06:58:44.380Z,26.65
2017-12-01T07:01:13.464Z,30.58
2017-12-01T07:03:41.811Z,30.52
2017-12-01T07:06:10.148Z,33.30
2017-12-01T07:08:38.491Z,28.45
2017-12-01T07:11:06.823Z,28.50
2017-12-01T07:13:35.159Z,27.40
2017-12-01T07:16:04.254Z,28.48
2017-12-01T07:18:33.373Z,29.20
2017-12-01T07:21:01.722Z,30.35
2017-12-01T07:23:30.827Z,30.67
2017-12-01T07:29:11.417Z,31.87
2017-12-01T07:31:39.761Z,29.65
2017-12-01T07:34:08.112Z,29.60
2017-12-01T07:36:36.422Z,32.40
2017-12-01T07:39:05.536Z,31.92
2017-12-01T07:41:34.656Z,29.33
2017-12-01T07:44:09.231Z,31.45
2017-12-01T07:46:37.579Z,33.08
2017-12-01T07:49:05.957Z,32.55
2017-12-01T07:51:34.321Z,34.63
2017-12-01T07:54:02.659Z,32.47
2017-12-01T07:56:31.766Z,30.20
2017-12-01T07:59:01.230Z,29.75
2017-12-01T08:01:29.562Z,28.00
2017-12-01T08:03:57.896Z,26.80
2017-12-01T08:06:26.239Z,26.70
2017-12-01T08:08:54.574Z,26.15
2017-12-01T08:11:23.669Z,25.62
2017-12-01T08:13:52.770Z,24.90
2017-12-01T08:19:34.303Z,23.92
2017-12-01T08:22:20.566Z,22.20
2017-12-01T08:25:07.320Z,19.67
2017-12-01T08:27:35.651Z,23.10
2017-12-01T08:30:04.749Z,19.37
2017-12-01T08:32:36.305Z,19.52
2017-12-01T08:35:05.389Z,19.17
2017-12-01T08:37:34.463Z,17.90
2017-12-01T08:40:02.813Z,17.83
2017-12-01T08:42:31.146Z,18.48
2017-12-01T08:44:59.477Z,17.90
2017-12-01T08:47:27.796Z,19.98
2017-12-01T08:49:56.896Z,16.70
2017-12-01T08:52:26.219Z,17.37
2017-12-01T08:54:54.551Z,18.92
2017-12-01T08:57:22.885Z,18.43
2017-12-01T08:59:51.226Z,19.23
2017-12-01T09:02:20.333Z,16.80
2017-12-01T09:04:48.678Z,18.65
2017-12-01T09:07:17.791Z,16.52
2017-12-01T09:09:46.890Z,19.70
2017-12-01T09:12:15.994Z,21.90
2017-12-01T09:14:44.332Z,20.50
2017-12-01T09:17:12.672Z,21.70
2017-12-01T09:19:41.014Z,20.62
2017-12-01T09:22:10.108Z,19.50
2017-12-01T09:24:39.207Z,19.65
2017-12-01T09:27:08.326Z,19.83
2017-12-01T09:29:36.661Z,20.48
2017-12-01T09:32:05.034Z,19.95
2017-12-01T09:34:33.362Z,20.65
2017-12-01T09:37:01.722Z,18.87
2017-12-01T09:39:30.070Z,21.20
2017-12-01T09:41:58.406Z,20.23
2017-12-01T09:44:26.775Z,19.75
2017-12-01T09:46:55.102Z,21.62
2017-12-01T09:49:23.430Z,22.55
2017-12-01T09:51:51.749Z,20.55
2017-12-01T09:54:20.094Z,20.65
2017-12-01T09:56:48.407Z,21.10
2017-12-01T09:59:16.772Z,19.95
2017-12-01T10:01:45.124Z,19.55
2017-12-01T10:04:13.451Z,22.40
2017-12-01T10:06:42.548Z,20.15
2017-12-01T10:09:10.890Z,20.15
2017-12-01T10:11:39.235Z,19.03
2017-12-01T10:14:07.576Z,22.40
2017-12-01T10:16:35.924Z,21.00
2017-12-01T10:19:04.284Z,21.67
2017-12-01T10:21:32.599Z,21.23
2017-12-01T10:24:00.920Z,23.50
2017-12-01T10:26:29.250Z,21.53
2017-12-01T10:28:57.603Z,23.03
2017-12-01T10:31:25.904Z,21.07
2017-12-01T10:33:54.235Z,20.70
2017-12-01T10:36:22.590Z,20.20
2017-12-01T10:38:50.918Z,19.30
2017-12-01T10:41:19.284Z,18.67
2017-12-01T10:43:47.618Z,19.67
2017-12-01T10:46:16.723Z,19.73
2017-12-01T10:48:45.845Z,18.10
2017-12-01T10:51:14.161Z,17.35
2017-12-01T10:53:42.506Z,17.67
2017-12-01T10:56:10.843Z,17.70
2017-12-01T10:58:39.182Z,19.70
2017-12-01T11:01:07.498Z,17.77
2017-12-01T11:03:36.580Z,16.80
2017-12-01T11:06:05.661Z,16.93
2017-12-01T11:08:33.988Z,42.20
2017-12-01T11:11:02.308Z,23.83
2017-12-01T11:13:30.642Z,25.07
2017-12-01T11:15:58.947Z,18.85
2017-12-01T11:18:27.280Z,18.83
2017-12-01T11:20:55.599Z,19.27
2017-12-01T11:23:23.942Z,17.48
2017-12-01T11:25:52.282Z,17.23
2017-12-01T11:28:20.594Z,17.98
2017-12-01T11:30:48.904Z,17.70
2017-12-01T11:33:17.216Z,15.67
2017-12-01T11:35:45.543Z,15.40
2017-12-01T11:38:13.889Z,15.73
2017-12-01T11:40:42.994Z,13.10
2017-12-01T11:43:11.299Z,14.67
2017-12-01T11:45:39.622Z,12.77
2017-12-01T11:48:07.909Z,11.80
2017-12-01T11:50:36.953Z,11.77
2017-12-01T11:53:05.237Z,12.40
2017-12-01T11:55:33.507Z,14.03
2017-12-01T11:58:01.762Z,13.50
2017-12-01T12:00:31.771Z,11.80
2017-12-01T12:03:00.041Z,12.40
2017-12-01T12:05:29.084Z,14.47
2017-12-01T12:07:57.344Z,13.40
2017-12-01T12:10:25.599Z,12.40
2017-12-01T12:12:53.863Z,11.97
2017-12-01T12:15:22.129Z,12.40
2017-12-01T12:17:51.148Z,13.00
2017-12-01T12:20:19.410Z,11.70
2017-12-01T12:22:47.714Z,11.03
2017-12-01T12:25:15.981Z,10.00
2017-12-01T12:27:44.268Z,12.20
2017-12-01T12:30:12.534Z,9.80
2017-12-01T12:32:40.807Z,11.93
2017-12-01T12:35:09.083Z,10.37
2017-12-01T12:37:37.379Z,9.33
2017-12-01T12:40:05.693Z,10.77
2017-12-01T12:42:34.753Z,10.00
2017-12-01T12:45:03.025Z,8.10
2017-12-01T12:47:31.284Z,9.13
2017-12-01T12:49:59.532Z,9.53
2017-12-01T12:52:27.798Z,10.03
2017-12-01T12:54:56.808Z,9.93
2017-12-01T12:57:25.071Z,10.67
2017-12-01T12:59:54.092Z,11.83
2017-12-01T13:02:22.372Z,10.40
2017-12-01T13:04:50.626Z,11.70
2017-12-01T13:07:18.885Z,10.83
2017-12-01T13:09:47.924Z,11.83
2017-12-01T13:12:16.178Z,12.00
2017-12-01T13:14:44.446Z,11.27
2017-12-01T13:17:12.689Z,9.60
2017-12-01T13:19:41.003Z,10.00
2017-12-01T13:22:09.254Z,12.13
2017-12-01T13:24:38.293Z,11.05
2017-12-01T13:27:06.549Z,9.87
2017-12-01T13:29:34.807Z,9.10
2017-12-01T13:32:03.071Z,10.03
2017-12-01T13:34:31.331Z,9.87
2017-12-01T13:36:59.599Z,10.30
2017-12-01T13:39:27.880Z,20.67
2017-12-01T13:41:56.153Z,10.57
2017-12-01T13:44:24.423Z,11.27
2017-12-01T13:46:52.717Z,9.05
2017-12-01T13:49:20.995Z,8.82
2017-12-01T13:51:49.247Z,9.30
2017-12-01T13:54:17.504Z,10.98
2017-12-01T13:56:45.776Z,13.13
2017-12-01T13:59:14.036Z,12.57
2017-12-01T14:01:42.311Z,12.10
2017-12-01T14:04:10.568Z,11.82
2017-12-01T14:06:39.606Z,12.40
2017-12-01T14:09:07.880Z,12.27
2017-12-01T14:11:36.137Z,9.85
2017-12-01T14:14:04.404Z,11.60
2017-12-01T14:16:32.665Z,13.02
2017-12-01T14:19:00.932Z,16.70
2017-12-01T14:21:29.966Z,13.60
2017-12-01T14:23:58.226Z,16.33
2017-12-01T14:26:26.484Z,16.07
2017-12-01T14:28:54.777Z,17.00
2017-12-01T14:31:23.048Z,15.23
2017-12-01T14:33:51.316Z,12.30
2017-12-01T14:36:19.575Z,13.07
2017-12-01T14:38:47.885Z,13.00
2017-12-01T14:41:16.179Z,12.85
2017-12-01T14:43:44.447Z,13.77
2017-12-01T14:46:12.722Z,13.40
2017-12-01T14:48:40.996Z,11.35
2017-12-01T14:51:09.250Z,12.73
2017-12-01T14:53:37.526Z,13.23
2017-12-01T14:56:05.787Z,11.48
2017-12-01T14:58:34.818Z,12.43
2017-12-01T15:01:03.084Z,11.18
2017-12-01T15:03:31.351Z,11.43
2017-12-01T15:05:59.623Z,10.88
2017-12-01T15:08:27.887Z,12.57
2017-12-01T15:10:56.930Z,11.82
2017-12-01T15:13:25.953Z,12.68
2017-12-01T15:15:54.225Z,10.73
2017-12-01T15:18:22.486Z,13.00
2017-12-01T15:20:50.762Z,10.48
2017-12-01T15:23:19.028Z,10.10
2017-12-01T15:25:47.303Z,12.27
2017-12-01T15:28:15.560Z,12.48
2017-12-01T15:30:43.828Z,11.85
2017-12-01T15:33:12.083Z,12.60
2017-12-01T15:35:40.356Z,12.30
2017-12-01T15:38:09.382Z,12.98
2017-12-01T15:40:37.656Z,12.10
2017-12-01T15:43:05.905Z,11.77
2017-12-01T15:45:34.850Z,10.90
2017-12-01T15:48:05.490Z,12.25
2017-12-01T15:50:33.807Z,13.02
2017-12-01T15:53:04.991Z,12.07
2017-12-01T15:55:36.872Z,11.68
2017-12-01T15:58:05.154Z,12.88
2017-12-01T16:00:33.499Z,12.27
2017-12-01T16:03:01.842Z,12.25
2017-12-01T16:05:31.352Z,14.50
2017-12-01T16:08:00.298Z,12.63
2017-12-01T16:10:28.643Z,11.55
2017-12-01T16:12:56.945Z,13.85
2017-12-01T16:15:25.316Z,13.88
2017-12-01T16:17:53.731Z,12.00
2017-12-01T16:20:22.812Z,13.70
2017-12-01T16:22:51.067Z,12.98
2017-12-01T16:25:20.102Z,10.77
2017-12-01T16:27:49.134Z,10.27
2017-12-01T16:30:20.109Z,12.98
2017-12-01T16:32:51.255Z,11.15
2017-12-01T16:35:18.660Z,10.00
2017-12-01T16:37:46.933Z,11.35
2017-12-01T16:40:15.198Z,12.85
2017-12-01T16:42:43.462Z,12.30
2017-12-01T16:45:12.523Z,11.05
2017-12-01T16:47:44.411Z,13.43
2017-12-01T16:50:13.512Z,16.37
2017-12-01T16:52:42.557Z,16.52
2017-12-01T16:55:10.829Z,17.08
2017-12-01T16:57:39.081Z,15.15
2017-12-01T17:00:07.351Z,19.77
2017-12-01T17:02:35.622Z,17.87
2017-12-01T17:05:03.914Z,17.58
2017-12-01T17:07:32.185Z,15.70
2017-12-01T17:10:00.450Z,17.55
2017-12-01T17:12:28.713Z,19.25
2017-12-01T17:14:57.738Z,19.98
2017-12-01T17:17:38.814Z,21.60
2017-12-01T17:20:09.569Z,24.10
2017-12-01T17:22:37.916Z,22.70
2017-12-01T17:25:06.257Z,22.90
2017-12-01T17:27:35.330Z,23.90
2017-12-01T17:30:04.851Z,22.65
2017-12-01T17:32:34.663Z,23.15
2017-12-01T17:35:04.929Z,23.80
2017-12-01T17:37:33.212Z,20.75
2017-12-01T17:40:01.539Z,22.33
2017-12-01T17:42:29.911Z,20.55
2017-12-01T17:44:58.261Z,18.27
2017-12-01T17:47:26.579Z,18.40
2017-12-01T17:49:55.708Z,20.37
2017-12-01T17:52:24.037Z,20.88
2017-12-01T17:54:52.341Z,20.02
2017-12-01T17:57:21.404Z,17.80
2017-12-01T17:59:49.656Z,15.98
2017-12-01T18:02:17.913Z,15.98
2017-12-01T18:04:46.193Z,14.45
2017-12-01T18:07:14.703Z,13.90
2017-12-01T18:09:43.033Z,16.23
2017-12-01T18:12:11.360Z,17.80
2017-12-01T18:14:39.727Z,19.73
2017-12-01T18:17:08.046Z,21.50
2017-12-01T18:19:37.139Z,23.27
2017-12-01T18:22:05.397Z,24.50
2017-12-01T18:24:33.721Z,24.90
2017-12-01T18:27:02.011Z,23.00
2017-12-01T18:29:30.304Z,21.92
2017-12-01T18:31:58.616Z,22.50
2017-12-01T18:34:26.913Z,25.33
2017-12-01T18:36:55.220Z,23.35
2017-12-01T18:39:23.515Z,24.05
2017-12-01T18:41:51.968Z,24.23
2017-12-01T18:44:20.245Z,24.27
2017-12-01T18:46:48.597Z,21.70
2017-12-01T18:49:17.738Z,24.70
2017-12-01T18:51:46.069Z,25.40
2017-12-01T18:54:15.213Z,27.35
2017-12-01T18:56:44.355Z,31.33
2017-12-01T18:59:13.455Z,31.35
2017-12-01T19:01:42.545Z,32.05
2017-12-01T19:04:11.645Z,27.45
2017-12-01T19:06:40.740Z,31.98
2017-12-01T19:09:09.870Z,29.95
2017-12-01T19:11:38.221Z,30.55
2017-12-01T19:14:06.526Z,32.40
2017-12-01T19:16:34.828Z,32.38
2017-12-01T19:19:03.183Z,32.78
2017-12-01T19:21:31.493Z,32.45
2017-12-01T19:24:01.761Z,32.30
2017-12-01T19:26:30.108Z,34.20
2017-12-01T19:28:58.391Z,36.17
2017-12-01T19:31:27.489Z,36.05
2017-12-01T19:33:56.602Z,35.00
2017-12-01T19:36:24.948Z,33.95
2017-12-01T19:39:07.763Z,30.52
2017-12-01T19:41:36.129Z,26.75
2017-12-01T19:44:04.479Z,27.00
2017-12-01T19:46:32.784Z,26.98
2017-12-01T19:49:01.102Z,28.85
2017-12-01T19:51:29.388Z,28.08
2017-12-01T19:53:57.935Z,30.50
2017-12-01T19:56:26.269Z,29.10
2017-12-01T19:58:55.458Z,26.45
2017-12-01T20:01:23.763Z,27.83
2017-12-01T20:03:52.064Z,28.65
2017-12-01T20:06:21.134Z,27.90
2017-12-01T20:08:49.464Z,30.10
2017-12-01T20:11:17.763Z,29.90
2017-12-01T20:13:46.058Z,30.35
2017-12-01T20:16:18.833Z,26.65
2017-12-01T20:18:47.190Z,25.67
2017-12-01T20:21:15.489Z,28.02
2017-12-01T20:23:43.786Z,27.05
2017-12-01T20:26:14.553Z,29.10
2017-12-01T20:28:43.696Z,31.52
2017-12-01T20:31:12.010Z,29.45
2017-12-01T20:33:50.671Z,30.23
2017-12-01T20:36:22.893Z,34.90
2017-12-01T20:38:51.237Z,31.15
2017-12-01T20:41:19.499Z,33.70
2017-12-01T20:43:47.796Z,33.10
2017-12-01T20:46:16.058Z,32.10
2017-12-01T20:48:46.088Z,35.45
2017-12-01T20:51:14.455Z,34.88
2017-12-01T20:53:54.593Z,33.02
2017-12-01T20:56:22.942Z,33.28
2017-12-01T20:58:51.244Z,35.85
2017-12-01T21:01:19.538Z,35.50
2017-12-01T21:03:48.058Z,36.03
2017-12-01T21:06:27.521Z,35.55
2017-12-01T21:08:55.901Z,35.05
2017-12-01T21:11:24.285Z,33.35
2017-12-01T21:13:52.633Z,32.80
2017-12-01T21:16:21.733Z,38.08
2017-12-01T21:18:50.856Z,32.38
2017-12-01T21:21:19.218Z,31.15
2017-12-01T21:23:48.378Z,31.40
2017-12-01T21:26:16.749Z,27.90
2017-12-01T21:28:45.086Z,30.37
2017-12-01T21:31:13.501Z,27.48
2017-12-01T21:33:43.549Z,27.08
2017-12-01T21:36:12.695Z,28.15
2017-12-01T21:38:41.065Z,23.42
2017-12-01T21:41:09.428Z,25.75
2017-12-01T21:43:38.540Z,25.50
2017-12-01T21:46:06.899Z,28.70
2017-12-01T21:48:36.042Z,28.33
2017-12-01T21:51:04.454Z,27.35
2017-12-01T21:53:32.890Z,27.67
2017-12-01T21:56:01.253Z,24.90
2017-12-01T21:58:29.649Z,19.25
2017-12-01T22:00:57.982Z,18.20
2017-12-01T22:03:27.083Z,26.75
2017-12-01T22:05:56.303Z,25.58
2017-12-01T22:08:24.684Z,26.52
2017-12-01T22:10:53.029Z,26.85
2017-12-01T22:13:21.380Z,28.40
2017-12-01T22:15:49.713Z,28.02
2017-12-01T22:18:18.114Z,26.75
2017-12-01T22:20:46.563Z,29.02
2017-12-01T22:23:14.938Z,28.38
2017-12-01T22:25:43.346Z,27.92
2017-12-01T22:28:11.800Z,28.02
2017-12-01T22:30:40.192Z,28.85
2017-12-01T22:33:08.556Z,29.45
2017-12-01T22:35:36.907Z,27.65
2017-12-01T22:38:05.246Z,30.42
2017-12-01T22:40:34.362Z,33.33
2017-12-01T22:43:02.668Z,27.08
2017-12-01T22:45:31.851Z,29.70
2017-12-01T22:48:01.047Z,30.00
2017-12-01T22:50:31.057Z,30.88
2017-12-01T22:52:59.428Z,30.65
2017-12-01T22:55:27.907Z,36.17
2017-12-01T22:57:56.997Z,38.53
2017-12-01T23:00:25.366Z,44.90
2017-12-01T23:02:53.680Z,42.75
2017-12-01T23:05:22.115Z,45.17
2017-12-01T23:07:50.480Z,41.22
2017-12-01T23:10:18.874Z,42.47
2017-12-01T23:12:47.178Z,41.28
2017-12-01T23:15:15.498Z,43.22
2017-12-01T23:17:43.868Z,42.25
2017-12-01T23:20:12.243Z,41.33
2017-12-01T23:22:40.631Z,46.13
2017-12-01T23:25:08.982Z,45.53
2017-12-01T23:27:38.100Z,45.35
2017-12-01T23:30:06.419Z,49.22
2017-12-01T23:32:34.852Z,46.30
2017-12-01T23:35:04.048Z,44.10
2017-12-01T23:37:32.452Z,43.58
2017-12-01T23:40:00.933Z,41.92
2017-12-01T23:42:29.274Z,42.75
2017-12-01T23:44:58.365Z,40.30
2017-12-01T23:47:27.523Z,40.10
2017-12-01T23:49:55.987Z,43.08
2017-12-01T23:52:25.108Z,42.40
2017-12-01T23:54:53.505Z,44.10
2017-12-01T23:57:21.906Z,42.40
2017-12-01T23:59:50.228Z,43.65
